Hlavní strana
METAR-TAF:

METAR-TAF

Letiště :

Letiště Altenburg-Nobitz

Altenburg, Německo

zeměpisná šířka: 50-58N, zeměpisná délka: 012-30E, výška: 195 m

Aktuální stav počasí

Zpráva byla vytvořena před 44 minutami, v 17:20 UTC
Východní vítr 5 kt, proměnlivý mezi severovýchodním a východojihovýchodním
Teplota 2°C
Vlhkost vzduchu 80%
Tlak 1033 hPa
Viditelnost 10 km a více

METAR: EDAC 171720Z AUTO 08005KT 040V110 9999 // NCD 02/M01 Q1033

Čas: 19:04 (18:04 UTC)

Předpověď počasí

Zpráva byla vytvořena před 4 hodinami a 4 minutami, v 14:00 UTC
Předpověď platná od 17 v 15 UTC do 17 v 24 UTC
Severovýchodní vítr 7 kt
Viditelnost 10 km a více
Žádná oblačnost pod 1500 m, nevyskytují se cumulonimby.

TAF: EDAC 171400Z 1715/1724 05007KT CAVOK

Stav a předpovědi počasí z více než 4 000 letišť (zprávy METAR a TAF).

Červené a žluté tečky na mapě představují dostupné meteorologické stanice.

Když kurzor umístíte na tečku, zobrazí se název stanice.

Pak kliknutím zobrazíte stav a předpověď počasí.

Chcete-li změnit mapu, kliknutím na zelené tlačítko se znaménkem +mapu přiblížíte, kliknutím na zelené tlačítko se znaménkem – mapu oddálíte a kliknutím na zelené šipky přejdete na sousední mapy.


METAR-TAF: